sensor_id;sensor_type;location;lat;lon;timestamp;temperature;humidity
31263;DHT22;17892;52.080;9.006;2022-11-15T00:00:54;11.40;92.40
31263;DHT22;17892;52.080;9.006;2022-11-15T00:03:22;11.40;92.30
31263;DHT22;17892;52.080;9.006;2022-11-15T00:05:49;11.50;92.30
31263;DHT22;17892;52.080;9.006;2022-11-15T00:08:15;11.50;92.30
31263;DHT22;17892;52.080;9.006;2022-11-15T00:10:41;11.60;92.30
31263;DHT22;17892;52.080;9.006;2022-11-15T00:13:11;11.60;92.30
31263;DHT22;17892;52.080;9.006;2022-11-15T00:15:39;11.70;92.30
31263;DHT22;17892;52.080;9.006;2022-11-15T00:18:06;11.70;92.20
31263;DHT22;17892;52.080;9.006;2022-11-15T00:20:37;11.80;92.30
31263;DHT22;17892;52.080;9.006;2022-11-15T00:23:03;11.80;92.40
31263;DHT22;17892;52.080;9.006;2022-11-15T00:25:30;11.80;92.50
31263;DHT22;17892;52.080;9.006;2022-11-15T00:27:56;11.80;92.40
31263;DHT22;17892;52.080;9.006;2022-11-15T00:30:22;11.90;92.50
31263;DHT22;17892;52.080;9.006;2022-11-15T00:32:49;11.90;92.50
31263;DHT22;17892;52.080;9.006;2022-11-15T00:35:15;11.90;92.60
31263;DHT22;17892;52.080;9.006;2022-11-15T00:37:41;11.90;92.60
31263;DHT22;17892;52.080;9.006;2022-11-15T00:40:07;12.00;92.60
31263;DHT22;17892;52.080;9.006;2022-11-15T00:42:34;12.00;92.70
31263;DHT22;17892;52.080;9.006;2022-11-15T00:44:59;12.00;92.80
31263;DHT22;17892;52.080;9.006;2022-11-15T00:47:25;12.10;92.80
31263;DHT22;17892;52.080;9.006;2022-11-15T00:49:51;12.10;92.90
31263;DHT22;17892;52.080;9.006;2022-11-15T00:52:17;12.10;92.90
31263;DHT22;17892;52.080;9.006;2022-11-15T00:54:42;12.10;92.90
31263;DHT22;17892;52.080;9.006;2022-11-15T00:57:08;12.10;92.90
31263;DHT22;17892;52.080;9.006;2022-11-15T00:59:34;12.20;93.00
31263;DHT22;17892;52.080;9.006;2022-11-15T01:02:00;12.20;93.10
31263;DHT22;17892;52.080;9.006;2022-11-15T01:04:26;12.20;93.10
31263;DHT22;17892;52.080;9.006;2022-11-15T01:06:52;12.20;93.10
31263;DHT22;17892;52.080;9.006;2022-11-15T01:09:18;12.30;93.10
31263;DHT22;17892;52.080;9.006;2022-11-15T01:11:44;12.30;93.20
31263;DHT22;17892;52.080;9.006;2022-11-15T01:14:10;12.40;93.40
31263;DHT22;17892;52.080;9.006;2022-11-15T01:16:36;12.40;93.30
31263;DHT22;17892;52.080;9.006;2022-11-15T01:19:01;12.40;93.40
31263;DHT22;17892;52.080;9.006;2022-11-15T01:21:27;12.40;93.40
31263;DHT22;17892;52.080;9.006;2022-11-15T01:23:57;12.40;93.30
31263;DHT22;17892;52.080;9.006;2022-11-15T01:26:23;12.50;93.50
31263;DHT22;17892;52.080;9.006;2022-11-15T01:28:49;12.50;93.60
31263;DHT22;17892;52.080;9.006;2022-11-15T01:31:18;12.50;93.60
31263;DHT22;17892;52.080;9.006;2022-11-15T01:33:46;12.60;93.70
31263;DHT22;17892;52.080;9.006;2022-11-15T01:36:17;12.60;93.70
31263;DHT22;17892;52.080;9.006;2022-11-15T01:38:44;12.60;93.70
31263;DHT22;17892;52.080;9.006;2022-11-15T01:41:19;12.70;93.70
31263;DHT22;17892;52.080;9.006;2022-11-15T01:43:51;12.70;93.80
31263;DHT22;17892;52.080;9.006;2022-11-15T01:48:47;12.70;93.60
31263;DHT22;17892;52.080;9.006;2022-11-15T01:51:16;12.70;93.80
31263;DHT22;17892;52.080;9.006;2022-11-15T01:53:47;12.70;93.80
31263;DHT22;17892;52.080;9.006;2022-11-15T01:56:18;12.70;93.90
31263;DHT22;17892;52.080;9.006;2022-11-15T01:58:47;12.70;93.90
31263;DHT22;17892;52.080;9.006;2022-11-15T02:01:18;12.70;93.90
31263;DHT22;17892;52.080;9.006;2022-11-15T02:03:51;12.70;94.20
31263;DHT22;17892;52.080;9.006;2022-11-15T02:06:20;12.70;94.30
31263;DHT22;17892;52.080;9.006;2022-11-15T02:08:47;12.80;94.10
31263;DHT22;17892;52.080;9.006;2022-11-15T02:11:13;12.80;94.10
31263;DHT22;17892;52.080;9.006;2022-11-15T02:13:39;12.70;94.00
31263;DHT22;17892;52.080;9.006;2022-11-15T02:29:05;12.70;94.40
31263;DHT22;17892;52.080;9.006;2022-11-15T02:31:51;12.70;95.30
31263;DHT22;17892;52.080;9.006;2022-11-15T02:34:24;12.70;94.80
31263;DHT22;17892;52.080;9.006;2022-11-15T02:40:07;12.70;94.50
31263;DHT22;17892;52.080;9.006;2022-11-15T02:42:45;12.70;94.50
31263;DHT22;17892;52.080;9.006;2022-11-15T02:45:39;12.70;94.70
31263;DHT22;17892;52.080;9.006;2022-11-15T02:48:17;12.80;94.60
31263;DHT22;17892;52.080;9.006;2022-11-15T02:50:45;12.80;94.70
31263;DHT22;17892;52.080;9.006;2022-11-15T02:53:11;12.80;94.60
31263;DHT22;17892;52.080;9.006;2022-11-15T02:55:39;12.90;94.70
31263;DHT22;17892;52.080;9.006;2022-11-15T02:58:17;12.90;94.70
31263;DHT22;17892;52.080;9.006;2022-11-15T03:07:07;13.00;94.70
31263;DHT22;17892;52.080;9.006;2022-11-15T03:13:34;13.10;94.90
31263;DHT22;17892;52.080;9.006;2022-11-15T03:16:32;13.20;94.70
31263;DHT22;17892;52.080;9.006;2022-11-15T03:21:58;13.20;94.60
31263;DHT22;17892;52.080;9.006;2022-11-15T03:24:26;13.20;94.60
31263;DHT22;17892;52.080;9.006;2022-11-15T03:26:55;13.20;94.60
31263;DHT22;17892;52.080;9.006;2022-11-15T03:29:25;13.30;94.50
31263;DHT22;17892;52.080;9.006;2022-11-15T03:32:12;13.30;94.70
31263;DHT22;17892;52.080;9.006;2022-11-15T03:34:44;13.30;94.70
31263;DHT22;17892;52.080;9.006;2022-11-15T03:40:16;13.40;94.60
31263;DHT22;17892;52.080;9.006;2022-11-15T03:43:04;13.40;94.40
31263;DHT22;17892;52.080;9.006;2022-11-15T03:46:11;13.40;94.40
31263;DHT22;17892;52.080;9.006;2022-11-15T03:48:51;13.30;94.20
31263;DHT22;17892;52.080;9.006;2022-11-15T03:51:19;13.30;94.20
31263;DHT22;17892;52.080;9.006;2022-11-15T03:53:46;13.20;94.00
31263;DHT22;17892;52.080;9.006;2022-11-15T03:56:11;13.10;94.10
31263;DHT22;17892;52.080;9.006;2022-11-15T03:58:37;13.10;94.20
31263;DHT22;17892;52.080;9.006;2022-11-15T04:01:03;13.00;94.30
31263;DHT22;17892;52.080;9.006;2022-11-15T04:03:29;13.00;94.50
31263;DHT22;17892;52.080;9.006;2022-11-15T04:05:54;13.00;94.70
31263;DHT22;17892;52.080;9.006;2022-11-15T04:08:20;13.00;94.70
31263;DHT22;17892;52.080;9.006;2022-11-15T04:10:49;13.00;94.60
31263;DHT22;17892;52.080;9.006;2022-11-15T04:13:15;13.00;94.60
31263;DHT22;17892;52.080;9.006;2022-11-15T04:15:40;13.10;94.60
31263;DHT22;17892;52.080;9.006;2022-11-15T04:18:06;13.10;94.60
31263;DHT22;17892;52.080;9.006;2022-11-15T04:20:32;13.10;94.50
31263;DHT22;17892;52.080;9.006;2022-11-15T04:23:22;13.00;94.30
31263;DHT22;17892;52.080;9.006;2022-11-15T04:26:16;13.00;94.30
31263;DHT22;17892;52.080;9.006;2022-11-15T04:28:44;13.00;94.40
31263;DHT22;17892;52.080;9.006;2022-11-15T04:31:28;13.00;94.30
31263;DHT22;17892;52.080;9.006;2022-11-15T04:33:54;12.90;94.30
31263;DHT22;17892;52.080;9.006;2022-11-15T04:36:20;12.80;94.20
31263;DHT22;17892;52.080;9.006;2022-11-15T04:39:05;12.80;94.20
31263;DHT22;17892;52.080;9.006;2022-11-15T04:41:31;12.70;94.30
31263;DHT22;17892;52.080;9.006;2022-11-15T04:43:57;12.70;94.20
31263;DHT22;17892;52.080;9.006;2022-11-15T04:46:24;12.60;94.40
31263;DHT22;17892;52.080;9.006;2022-11-15T04:48:51;12.60;94.60
31263;DHT22;17892;52.080;9.006;2022-11-15T04:51:17;12.50;94.60
31263;DHT22;17892;52.080;9.006;2022-11-15T04:53:43;12.50;94.70
31263;DHT22;17892;52.080;9.006;2022-11-15T04:56:09;12.40;94.80
31263;DHT22;17892;52.080;9.006;2022-11-15T04:58:34;12.40;94.80
31263;DHT22;17892;52.080;9.006;2022-11-15T05:01:14;12.40;94.90
31263;DHT22;17892;52.080;9.006;2022-11-15T05:03:41;12.50;95.20
31263;DHT22;17892;52.080;9.006;2022-11-15T05:06:25;12.50;95.00
31263;DHT22;17892;52.080;9.006;2022-11-15T05:08:51;12.50;94.90
31263;DHT22;17892;52.080;9.006;2022-11-15T05:11:17;12.50;95.00
31263;DHT22;17892;52.080;9.006;2022-11-15T05:13:43;12.60;95.00
31263;DHT22;17892;52.080;9.006;2022-11-15T05:16:09;12.60;95.00
31263;DHT22;17892;52.080;9.006;2022-11-15T05:18:35;12.60;95.00
31263;DHT22;17892;52.080;9.006;2022-11-15T05:21:05;12.60;95.00
31263;DHT22;17892;52.080;9.006;2022-11-15T05:23:32;12.70;95.00
31263;DHT22;17892;52.080;9.006;2022-11-15T05:26:02;12.70;95.10
31263;DHT22;17892;52.080;9.006;2022-11-15T05:28:29;12.80;95.10
31263;DHT22;17892;52.080;9.006;2022-11-15T05:31:05;12.80;95.10
31263;DHT22;17892;52.080;9.006;2022-11-15T05:33:34;12.90;95.20
31263;DHT22;17892;52.080;9.006;2022-11-15T05:38:44;12.90;95.20
31263;DHT22;17892;52.080;9.006;2022-11-15T05:41:11;13.00;95.10
31263;DHT22;17892;52.080;9.006;2022-11-15T05:43:38;13.00;95.00
31263;DHT22;17892;52.080;9.006;2022-11-15T05:46:06;13.10;95.00
31263;DHT22;17892;52.080;9.006;2022-11-15T05:48:33;13.10;94.90
31263;DHT22;17892;52.080;9.006;2022-11-15T05:50:59;13.10;94.80
31263;DHT22;17892;52.080;9.006;2022-11-15T05:53:26;13.20;94.90
31263;DHT22;17892;52.080;9.006;2022-11-15T05:55:52;13.20;94.80
31263;DHT22;17892;52.080;9.006;2022-11-15T05:58:19;13.20;94.80
31263;DHT22;17892;52.080;9.006;2022-11-15T06:00:45;13.30;94.80
31263;DHT22;17892;52.080;9.006;2022-11-15T06:03:11;13.30;94.80
31263;DHT22;17892;52.080;9.006;2022-11-15T06:05:39;13.30;94.80
31263;DHT22;17892;52.080;9.006;2022-11-15T06:08:05;13.40;94.80
31263;DHT22;17892;52.080;9.006;2022-11-15T06:10:32;13.40;94.80
31263;DHT22;17892;52.080;9.006;2022-11-15T06:13:02;13.40;94.70
31263;DHT22;17892;52.080;9.006;2022-11-15T06:15:29;13.40;94.70
31263;DHT22;17892;52.080;9.006;2022-11-15T06:17:58;13.40;94.70
31263;DHT22;17892;52.080;9.006;2022-11-15T06:20:25;13.50;94.70
31263;DHT22;17892;52.080;9.006;2022-11-15T06:22:58;13.50;94.70
31263;DHT22;17892;52.080;9.006;2022-11-15T06:25:24;13.50;94.60
31263;DHT22;17892;52.080;9.006;2022-11-15T06:27:52;13.50;94.50
31263;DHT22;17892;52.080;9.006;2022-11-15T06:30:19;13.50;94.40
31263;DHT22;17892;52.080;9.006;2022-11-15T06:32:45;13.40;94.30
31263;DHT22;17892;52.080;9.006;2022-11-15T06:35:11;13.40;94.30
31263;DHT22;17892;52.080;9.006;2022-11-15T06:37:37;13.40;94.30
31263;DHT22;17892;52.080;9.006;2022-11-15T06:40:03;13.30;94.20
31263;DHT22;17892;52.080;9.006;2022-11-15T06:42:29;13.30;94.20
31263;DHT22;17892;52.080;9.006;2022-11-15T06:44:54;13.20;94.20
31263;DHT22;17892;52.080;9.006;2022-11-15T06:47:20;13.20;94.20
31263;DHT22;17892;52.080;9.006;2022-11-15T06:49:46;13.10;94.20
31263;DHT22;17892;52.080;9.006;2022-11-15T06:52:11;13.00;94.20
31263;DHT22;17892;52.080;9.006;2022-11-15T06:54:37;13.00;94.20
31263;DHT22;17892;52.080;9.006;2022-11-15T06:57:04;12.90;94.20
31263;DHT22;17892;52.080;9.006;2022-11-15T06:59:30;12.90;94.20
31263;DHT22;17892;52.080;9.006;2022-11-15T07:01:56;12.80;94.30
31263;DHT22;17892;52.080;9.006;2022-11-15T07:04:21;12.80;94.30
31263;DHT22;17892;52.080;9.006;2022-11-15T07:06:47;12.70;94.30
31263;DHT22;17892;52.080;9.006;2022-11-15T07:09:15;12.70;94.50
31263;DHT22;17892;52.080;9.006;2022-11-15T07:11:40;12.70;94.60
31263;DHT22;17892;52.080;9.006;2022-11-15T07:14:06;12.60;94.70
31263;DHT22;17892;52.080;9.006;2022-11-15T07:16:32;12.70;94.80
31263;DHT22;17892;52.080;9.006;2022-11-15T07:18:57;12.70;94.90
31263;DHT22;17892;52.080;9.006;2022-11-15T07:21:23;12.70;95.00
31263;DHT22;17892;52.080;9.006;2022-11-15T07:23:49;12.80;95.10
31263;DHT22;17892;52.080;9.006;2022-11-15T07:26:15;12.80;95.00
31263;DHT22;17892;52.080;9.006;2022-11-15T07:28:40;12.90;95.10
31263;DHT22;17892;52.080;9.006;2022-11-15T07:31:08;12.90;95.10
31263;DHT22;17892;52.080;9.006;2022-11-15T07:33:34;13.00;95.00
31263;DHT22;17892;52.080;9.006;2022-11-15T07:36:02;13.00;94.90
31263;DHT22;17892;52.080;9.006;2022-11-15T07:38:29;13.10;94.80
31263;DHT22;17892;52.080;9.006;2022-11-15T07:41:00;13.10;94.80
31263;DHT22;17892;52.080;9.006;2022-11-15T07:43:28;13.10;94.80
31263;DHT22;17892;52.080;9.006;2022-11-15T07:45:55;13.10;94.80
31263;DHT22;17892;52.080;9.006;2022-11-15T07:48:22;13.20;94.80
31263;DHT22;17892;52.080;9.006;2022-11-15T07:50:48;13.20;94.80
31263;DHT22;17892;52.080;9.006;2022-11-15T07:53:14;13.30;94.80
31263;DHT22;17892;52.080;9.006;2022-11-15T07:55:41;13.30;94.80
31263;DHT22;17892;52.080;9.006;2022-11-15T07:58:09;13.40;94.80
31263;DHT22;17892;52.080;9.006;2022-11-15T08:00:36;13.40;94.80
31263;DHT22;17892;52.080;9.006;2022-11-15T08:03:11;13.50;94.80
31263;DHT22;17892;52.080;9.006;2022-11-15T08:05:39;13.50;94.70
31263;DHT22;17892;52.080;9.006;2022-11-15T08:08:07;13.50;94.60
31263;DHT22;17892;52.080;9.006;2022-11-15T08:10:34;13.50;94.50
31263;DHT22;17892;52.080;9.006;2022-11-15T08:13:06;13.60;94.60
31263;DHT22;17892;52.080;9.006;2022-11-15T08:15:34;13.60;94.60
31263;DHT22;17892;52.080;9.006;2022-11-15T08:18:03;13.70;94.50
31263;DHT22;17892;52.080;9.006;2022-11-15T08:20:30;13.70;94.50
31263;DHT22;17892;52.080;9.006;2022-11-15T08:22:58;13.70;94.50
31263;DHT22;17892;52.080;9.006;2022-11-15T08:25:26;13.70;94.50
31263;DHT22;17892;52.080;9.006;2022-11-15T08:27:54;13.80;94.70
31263;DHT22;17892;52.080;9.006;2022-11-15T08:30:24;13.90;94.80
31263;DHT22;17892;52.080;9.006;2022-11-15T08:32:51;13.90;94.70
31263;DHT22;17892;52.080;9.006;2022-11-15T08:35:18;14.00;94.60
31263;DHT22;17892;52.080;9.006;2022-11-15T08:37:45;14.10;94.60
31263;DHT22;17892;52.080;9.006;2022-11-15T08:40:10;14.20;94.60
31263;DHT22;17892;52.080;9.006;2022-11-15T08:42:36;14.30;94.50
31263;DHT22;17892;52.080;9.006;2022-11-15T08:45:03;14.30;94.50
31263;DHT22;17892;52.080;9.006;2022-11-15T08:47:29;14.40;94.50
31263;DHT22;17892;52.080;9.006;2022-11-15T08:49:55;14.50;94.50
31263;DHT22;17892;52.080;9.006;2022-11-15T08:52:21;14.60;94.50
31263;DHT22;17892;52.080;9.006;2022-11-15T08:54:47;14.70;94.40
31263;DHT22;17892;52.080;9.006;2022-11-15T08:57:12;14.80;94.40
31263;DHT22;17892;52.080;9.006;2022-11-15T08:59:38;14.80;94.30
31263;DHT22;17892;52.080;9.006;2022-11-15T09:02:04;14.90;94.10
31263;DHT22;17892;52.080;9.006;2022-11-15T09:04:31;15.00;94.30
31263;DHT22;17892;52.080;9.006;2022-11-15T09:06:56;15.10;94.00
31263;DHT22;17892;52.080;9.006;2022-11-15T09:09:22;15.10;93.80
31263;DHT22;17892;52.080;9.006;2022-11-15T09:11:48;15.20;93.90
31263;DHT22;17892;52.080;9.006;2022-11-15T09:14:14;15.20;93.80
31263;DHT22;17892;52.080;9.006;2022-11-15T09:16:40;15.20;93.90
31263;DHT22;17892;52.080;9.006;2022-11-15T09:19:06;15.20;93.80
31263;DHT22;17892;52.080;9.006;2022-11-15T09:21:32;15.30;93.80
31263;DHT22;17892;52.080;9.006;2022-11-15T09:23:58;15.30;93.70
31263;DHT22;17892;52.080;9.006;2022-11-15T09:26:24;15.40;94.00
31263;DHT22;17892;52.080;9.006;2022-11-15T09:28:49;15.50;94.50
31263;DHT22;17892;52.080;9.006;2022-11-15T09:31:16;15.70;94.80
31263;DHT22;17892;52.080;9.006;2022-11-15T09:33:45;16.00;94.50
31263;DHT22;17892;52.080;9.006;2022-11-15T09:36:11;16.20;94.20
31263;DHT22;17892;52.080;9.006;2022-11-15T09:38:37;16.40;94.40
31263;DHT22;17892;52.080;9.006;2022-11-15T09:49:14;16.80;92.10
31263;DHT22;17892;52.080;9.006;2022-11-15T09:51:46;16.70;92.00
31263;DHT22;17892;52.080;9.006;2022-11-15T09:54:33;16.60;91.90
31263;DHT22;17892;52.080;9.006;2022-11-15T10:00:20;16.40;91.60
31263;DHT22;17892;52.080;9.006;2022-11-15T10:03:02;16.30;91.40
31263;DHT22;17892;52.080;9.006;2022-11-15T10:05:47;16.20;92.00
31263;DHT22;17892;52.080;9.006;2022-11-15T10:10:59;16.10;92.10
31263;DHT22;17892;52.080;9.006;2022-11-15T10:13:29;16.00;92.30
31263;DHT22;17892;52.080;9.006;2022-11-15T10:16:09;16.00;92.10
31263;DHT22;17892;52.080;9.006;2022-11-15T10:19:00;16.00;92.00
31263;DHT22;17892;52.080;9.006;2022-11-15T10:21:46;16.00;92.20
31263;DHT22;17892;52.080;9.006;2022-11-15T10:24:25;16.00;91.90
31263;DHT22;17892;52.080;9.006;2022-11-15T10:26:55;16.00;91.90
31263;DHT22;17892;52.080;9.006;2022-11-15T10:29:23;16.00;92.20
31263;DHT22;17892;52.080;9.006;2022-11-15T10:31:50;16.00;92.20
31263;DHT22;17892;52.080;9.006;2022-11-15T10:34:19;16.10;92.20
31263;DHT22;17892;52.080;9.006;2022-11-15T10:36:53;16.10;92.20
31263;DHT22;17892;52.080;9.006;2022-11-15T10:39:23;16.10;91.90
31263;DHT22;17892;52.080;9.006;2022-11-15T10:41:49;16.10;92.10
31263;DHT22;17892;52.080;9.006;2022-11-15T10:49:30;16.00;91.60
31263;DHT22;17892;52.080;9.006;2022-11-15T10:52:00;16.00;91.70
31263;DHT22;17892;52.080;9.006;2022-11-15T10:57:27;16.00;91.40
31263;DHT22;17892;52.080;9.006;2022-11-15T10:59:57;16.00;91.80
31263;DHT22;17892;52.080;9.006;2022-11-15T11:02:32;16.00;91.90
31263;DHT22;17892;52.080;9.006;2022-11-15T11:05:02;16.10;91.80
31263;DHT22;17892;52.080;9.006;2022-11-15T11:07:34;16.10;92.40
31263;DHT22;17892;52.080;9.006;2022-11-15T11:10:17;16.10;91.90
31263;DHT22;17892;52.080;9.006;2022-11-15T11:12:45;16.20;91.90
31263;DHT22;17892;52.080;9.006;2022-11-15T11:15:13;16.20;91.90
31263;DHT22;17892;52.080;9.006;2022-11-15T11:18:17;16.30;91.90
31263;DHT22;17892;52.080;9.006;2022-11-15T11:20:59;16.30;91.60
31263;DHT22;17892;52.080;9.006;2022-11-15T11:30:24;16.50;91.00
31263;DHT22;17892;52.080;9.006;2022-11-15T11:33:19;16.50;91.50
31263;DHT22;17892;52.080;9.006;2022-11-15T11:39:17;16.60;91.40
31263;DHT22;17892;52.080;9.006;2022-11-15T11:47:17;16.70;91.10
31263;DHT22;17892;52.080;9.006;2022-11-15T11:49:51;16.70;91.10
31263;DHT22;17892;52.080;9.006;2022-11-15T11:55:45;16.70;90.70
31263;DHT22;17892;52.080;9.006;2022-11-15T11:58:21;16.70;90.60
31263;DHT22;17892;52.080;9.006;2022-11-15T12:06:56;16.70;90.40
31263;DHT22;17892;52.080;9.006;2022-11-15T12:09:30;16.70;90.70
31263;DHT22;17892;52.080;9.006;2022-11-15T12:12:17;16.70;90.80
31263;DHT22;17892;52.080;9.006;2022-11-15T12:15:04;16.70;90.20
31263;DHT22;17892;52.080;9.006;2022-11-15T12:17:40;16.70;90.50
31263;DHT22;17892;52.080;9.006;2022-11-15T12:20:18;16.70;90.70
31263;DHT22;17892;52.080;9.006;2022-11-15T12:23:13;16.70;90.30
31263;DHT22;17892;52.080;9.006;2022-11-15T12:28:54;16.60;90.20
31263;DHT22;17892;52.080;9.006;2022-11-15T12:31:36;16.60;89.70
31263;DHT22;17892;52.080;9.006;2022-11-15T12:36:46;16.50;90.40
31263;DHT22;17892;52.080;9.006;2022-11-15T12:39:14;16.50;90.50
31263;DHT22;17892;52.080;9.006;2022-11-15T12:41:42;16.50;90.50
31263;DHT22;17892;52.080;9.006;2022-11-15T12:59:52;17.00;90.70
31263;DHT22;17892;52.080;9.006;2022-11-15T13:05:11;17.40;91.10
31263;DHT22;17892;52.080;9.006;2022-11-15T13:17:46;17.70;86.30
31263;DHT22;17892;52.080;9.006;2022-11-15T13:28:22;17.40;90.00
31263;DHT22;17892;52.080;9.006;2022-11-15T13:30:58;17.40;88.60
31263;DHT22;17892;52.080;9.006;2022-11-15T13:33:30;17.40;89.30
31263;DHT22;17892;52.080;9.006;2022-11-15T13:36:27;17.30;89.00
31263;DHT22;17892;52.080;9.006;2022-11-15T13:39:27;17.30;88.20
31263;DHT22;17892;52.080;9.006;2022-11-15T13:41:54;17.30;86.30
31263;DHT22;17892;52.080;9.006;2022-11-15T13:47:13;17.10;88.00
31263;DHT22;17892;52.080;9.006;2022-11-15T13:49:40;17.10;87.40
31263;DHT22;17892;52.080;9.006;2022-11-15T13:52:15;17.00;88.00
31263;DHT22;17892;52.080;9.006;2022-11-15T13:54:59;16.90;88.10
31263;DHT22;17892;52.080;9.006;2022-11-15T14:03:27;16.70;87.50
31263;DHT22;17892;52.080;9.006;2022-11-15T14:06:14;16.70;88.00
31263;DHT22;17892;52.080;9.006;2022-11-15T14:09:29;16.70;88.20
31263;DHT22;17892;52.080;9.006;2022-11-15T14:11:50;16.60;88.50
31263;DHT22;17892;52.080;9.006;2022-11-15T14:14:22;16.50;88.70
31263;DHT22;17892;52.080;9.006;2022-11-15T14:16:51;16.50;88.90
31263;DHT22;17892;52.080;9.006;2022-11-15T14:22:14;16.40;89.00
31263;DHT22;17892;52.080;9.006;2022-11-15T14:24:44;16.40;89.10
31263;DHT22;17892;52.080;9.006;2022-11-15T14:27:27;16.40;89.40
31263;DHT22;17892;52.080;9.006;2022-11-15T14:29:54;16.30;89.30
31263;DHT22;17892;52.080;9.006;2022-11-15T14:35:17;16.20;89.60
31263;DHT22;17892;52.080;9.006;2022-11-15T14:37:45;16.20;89.50
31263;DHT22;17892;52.080;9.006;2022-11-15T14:40:16;16.20;89.60
31263;DHT22;17892;52.080;9.006;2022-11-15T14:42:45;16.10;89.60
31263;DHT22;17892;52.080;9.006;2022-11-15T14:45:21;16.10;89.80
31263;DHT22;17892;52.080;9.006;2022-11-15T14:47:47;16.10;89.70
31263;DHT22;17892;52.080;9.006;2022-11-15T14:50:18;16.10;89.80
31263;DHT22;17892;52.080;9.006;2022-11-15T14:52:45;16.00;89.60
31263;DHT22;17892;52.080;9.006;2022-11-15T14:55:21;16.00;89.60
31263;DHT22;17892;52.080;9.006;2022-11-15T14:57:49;16.00;89.70
31263;DHT22;17892;52.080;9.006;2022-11-15T15:00:16;16.00;89.70
31263;DHT22;17892;52.080;9.006;2022-11-15T15:02:44;15.90;89.70
31263;DHT22;17892;52.080;9.006;2022-11-15T15:05:51;15.90;89.80
31263;DHT22;17892;52.080;9.006;2022-11-15T15:08:10;15.80;89.80
31263;DHT22;17892;52.080;9.006;2022-11-15T15:10:38;15.80;89.90
31263;DHT22;17892;52.080;9.006;2022-11-15T15:13:29;15.80;90.10
31263;DHT22;17892;52.080;9.006;2022-11-15T15:15:55;15.70;90.10
31263;DHT22;17892;52.080;9.006;2022-11-15T15:18:21;15.70;90.10
31263;DHT22;17892;52.080;9.006;2022-11-15T15:20:54;15.70;90.10
31263;DHT22;17892;52.080;9.006;2022-11-15T15:23:22;15.60;90.20
31263;DHT22;17892;52.080;9.006;2022-11-15T15:25:50;15.70;90.60
31263;DHT22;17892;52.080;9.006;2022-11-15T15:28:18;15.60;90.20
31263;DHT22;17892;52.080;9.006;2022-11-15T15:30:43;15.60;90.20
31263;DHT22;17892;52.080;9.006;2022-11-15T15:33:09;15.60;90.30
31263;DHT22;17892;52.080;9.006;2022-11-15T15:35:35;15.60;90.30
31263;DHT22;17892;52.080;9.006;2022-11-15T15:38:01;15.60;90.40
31263;DHT22;17892;52.080;9.006;2022-11-15T15:40:29;15.60;90.40
31263;DHT22;17892;52.080;9.006;2022-11-15T15:42:56;15.50;90.30
31263;DHT22;17892;52.080;9.006;2022-11-15T15:45:22;15.50;90.30
31263;DHT22;17892;52.080;9.006;2022-11-15T15:47:50;15.50;90.30
31263;DHT22;17892;52.080;9.006;2022-11-15T15:52:52;15.50;90.40
31263;DHT22;17892;52.080;9.006;2022-11-15T15:55:19;15.40;90.30
31263;DHT22;17892;52.080;9.006;2022-11-15T15:57:45;15.40;90.40
31263;DHT22;17892;52.080;9.006;2022-11-15T16:00:11;15.40;90.40
31263;DHT22;17892;52.080;9.006;2022-11-15T16:02:38;15.30;90.40
31263;DHT22;17892;52.080;9.006;2022-11-15T16:05:05;15.30;90.50
31263;DHT22;17892;52.080;9.006;2022-11-15T16:07:31;15.30;90.50
31263;DHT22;17892;52.080;9.006;2022-11-15T16:09:57;15.30;90.60
31263;DHT22;17892;52.080;9.006;2022-11-15T16:12:30;15.30;90.60
31263;DHT22;17892;52.080;9.006;2022-11-15T16:15:00;15.30;90.70
31263;DHT22;17892;52.080;9.006;2022-11-15T16:17:35;15.30;90.70
31263;DHT22;17892;52.080;9.006;2022-11-15T16:20:04;15.30;90.80
31263;DHT22;17892;52.080;9.006;2022-11-15T16:22:30;15.30;90.70
31263;DHT22;17892;52.080;9.006;2022-11-15T16:24:56;15.30;90.70
31263;DHT22;17892;52.080;9.006;2022-11-15T16:27:22;15.30;90.70
31263;DHT22;17892;52.080;9.006;2022-11-15T16:29:49;15.30;90.60
31263;DHT22;17892;52.080;9.006;2022-11-15T16:32:15;15.30;90.60
31263;DHT22;17892;52.080;9.006;2022-11-15T16:34:41;15.20;90.60
31263;DHT22;17892;52.080;9.006;2022-11-15T16:37:33;15.20;90.60
31263;DHT22;17892;52.080;9.006;2022-11-15T16:39:59;15.20;90.70
31263;DHT22;17892;52.080;9.006;2022-11-15T16:42:24;15.20;90.60
31263;DHT22;17892;52.080;9.006;2022-11-15T16:44:50;15.10;90.50
31263;DHT22;17892;52.080;9.006;2022-11-15T16:47:17;15.10;90.40
31263;DHT22;17892;52.080;9.006;2022-11-15T16:49:47;15.00;90.40
31263;DHT22;17892;52.080;9.006;2022-11-15T16:52:13;15.00;90.30
31263;DHT22;17892;52.080;9.006;2022-11-15T16:54:39;15.00;90.40
31263;DHT22;17892;52.080;9.006;2022-11-15T16:57:04;14.90;90.50
31263;DHT22;17892;52.080;9.006;2022-11-15T16:59:30;14.80;90.50
31263;DHT22;17892;52.080;9.006;2022-11-15T17:01:57;14.80;90.60
31263;DHT22;17892;52.080;9.006;2022-11-15T17:04:23;14.80;90.70
31263;DHT22;17892;52.080;9.006;2022-11-15T17:06:49;14.80;90.70
31263;DHT22;17892;52.080;9.006;2022-11-15T17:09:20;14.70;90.70
31263;DHT22;17892;52.080;9.006;2022-11-15T17:11:49;14.80;90.80
31263;DHT22;17892;52.080;9.006;2022-11-15T17:14:16;14.80;90.80
31263;DHT22;17892;52.080;9.006;2022-11-15T17:16:42;14.80;90.80
31263;DHT22;17892;52.080;9.006;2022-11-15T17:19:13;14.80;90.80
31263;DHT22;17892;52.080;9.006;2022-11-15T17:21:41;14.80;90.80
31263;DHT22;17892;52.080;9.006;2022-11-15T17:24:07;14.80;90.70
31263;DHT22;17892;52.080;9.006;2022-11-15T17:26:34;14.70;90.50
31263;DHT22;17892;52.080;9.006;2022-11-15T17:29:00;14.70;90.50
31263;DHT22;17892;52.080;9.006;2022-11-15T17:31:27;14.60;90.40
31263;DHT22;17892;52.080;9.006;2022-11-15T17:33:55;14.60;90.50
31263;DHT22;17892;52.080;9.006;2022-11-15T17:36:20;14.50;90.60
31263;DHT22;17892;52.080;9.006;2022-11-15T17:38:47;14.50;90.70
31263;DHT22;17892;52.080;9.006;2022-11-15T17:41:16;14.40;90.80
31263;DHT22;17892;52.080;9.006;2022-11-15T17:43:42;14.40;90.80
31263;DHT22;17892;52.080;9.006;2022-11-15T17:46:18;14.40;91.10
31263;DHT22;17892;52.080;9.006;2022-11-15T17:48:46;14.30;91.10
31263;DHT22;17892;52.080;9.006;2022-11-15T17:51:14;14.30;91.10
31263;DHT22;17892;52.080;9.006;2022-11-15T17:53:43;14.30;91.20
31263;DHT22;17892;52.080;9.006;2022-11-15T17:56:15;14.30;91.20
31263;DHT22;17892;52.080;9.006;2022-11-15T17:58:47;14.30;91.10
31263;DHT22;17892;52.080;9.006;2022-11-15T18:03:52;14.30;91.40
31263;DHT22;17892;52.080;9.006;2022-11-15T18:06:20;14.30;91.30
31263;DHT22;17892;52.080;9.006;2022-11-15T18:08:49;14.30;91.40
31263;DHT22;17892;52.080;9.006;2022-11-15T18:11:21;14.30;91.30
31263;DHT22;17892;52.080;9.006;2022-11-15T18:13:51;14.30;91.40